Time;durP1;ratioP1;P1;durP2;ratioP2;P2;SDS_P1;SDS_P2;PMS_P1;PMS_P2;Temp;Humidity;BMP_temperature;BMP_pressure;BME280_temperature;BME280_humidity;BME280_pressure;Samples;Min_cycle;Max_cycle;Signal;HPM_P1;HPM_P2
2021/12/22 00:00:27;;;;;;;23.35;11.40;;;-1.90;99.90;;;;;;5013057;28;20018;-52
2021/12/22 00:02:53;;;;;;;24.02;12.85;;;-1.90;99.90;;;;;;5012581;28;20033;-53
2021/12/22 00:05:26;;;;;;;20.10;12.13;;;-2.00;99.90;;;;;;5012880;28;20029;-50
2021/12/22 00:07:52;;;;;;;24.58;12.45;;;-2.10;99.90;;;;;;5012846;28;20033;-51
2021/12/22 00:10:19;;;;;;;26.35;12.93;;;-2.10;99.90;;;;;;5012508;28;20155;-52
2021/12/22 00:12:46;;;;;;;18.63;11.65;;;-2.10;99.90;;;;;;5012683;28;20447;-52
2021/12/22 00:15:12;;;;;;;26.05;13.35;;;-2.20;99.90;;;;;;5013022;28;20030;-53
2021/12/22 00:17:38;;;;;;;22.48;12.88;;;-2.20;99.90;;;;;;4994886;28;20026;-49
2021/12/22 00:20:06;;;;;;;24.38;12.88;;;-2.30;99.90;;;;;;5012312;28;20052;-51
2021/12/22 00:22:32;;;;;;;30.13;12.15;;;-2.30;99.90;;;;;;5012384;28;20022;-47
2021/12/22 00:24:57;;;;;;;22.02;12.75;;;-2.30;99.90;;;;;;5012630;28;20032;-50
2021/12/22 00:27:23;;;;;;;22.80;13.20;;;-2.40;99.90;;;;;;5012713;28;20409;-53
2021/12/22 00:29:51;;;;;;;27.20;13.82;;;-2.40;99.90;;;;;;5012336;28;20032;-53
2021/12/22 00:32:17;;;;;;;31.15;14.18;;;-2.40;99.90;;;;;;5012134;28;20510;-50
2021/12/22 00:34:48;;;;;;;24.20;13.32;;;-2.40;99.90;;;;;;5012572;28;20108;-50
2021/12/22 00:37:15;;;;;;;23.48;13.38;;;-2.40;99.90;;;;;;4995023;28;20088;-48
2021/12/22 00:39:43;;;;;;;25.33;15.88;;;-2.50;99.90;;;;;;5012191;28;20037;-49
2021/12/22 00:42:09;;;;;;;21.23;12.80;;;-2.50;99.90;;;;;;5013034;28;20025;-48
2021/12/22 00:44:35;;;;;;;23.27;13.27;;;-2.50;99.90;;;;;;5012625;28;20022;-51
2021/12/22 00:47:00;;;;;;;20.38;11.70;;;-2.40;99.90;;;;;;4994545;28;20033;-49
2021/12/22 00:49:26;;;;;;;22.60;13.07;;;-2.40;99.90;;;;;;5012294;28;20033;-51
2021/12/22 00:51:51;;;;;;;21.38;12.65;;;-2.60;99.90;;;;;;5012480;28;20497;-52
2021/12/22 00:54:17;;;;;;;24.95;13.20;;;-2.60;99.90;;;;;;5012378;28;20115;-51
2021/12/22 00:56:42;;;;;;;23.25;11.90;;;-2.60;99.90;;;;;;5011977;28;20072;-54
2021/12/22 00:59:08;;;;;;;19.58;11.40;;;-2.60;99.90;;;;;;5011975;28;20030;-48
2021/12/22 01:01:33;;;;;;;18.75;11.30;;;-2.50;99.90;;;;;;4994945;28;20026;-50
2021/12/22 01:03:59;;;;;;;18.35;11.43;;;-2.60;99.90;;;;;;5012134;28;20024;-52
2021/12/22 01:06:24;;;;;;;18.13;10.65;;;-2.60;99.90;;;;;;5012370;28;20046;-51
2021/12/22 01:08:50;;;;;;;18.48;10.48;;;-2.60;99.90;;;;;;5012215;28;20098;-50
2021/12/22 01:11:15;;;;;;;28.30;12.05;;;-2.70;99.90;;;;;;5012011;28;20061;-50
2021/12/22 01:13:41;;;;;;;20.20;10.63;;;-2.70;99.90;;;;;;5012166;28;20030;-51
2021/12/22 01:16:07;;;;;;;19.55;12.55;;;-2.70;99.90;;;;;;5012066;28;20041;-54
2021/12/22 01:18:34;;;;;;;22.40;11.68;;;-2.70;99.90;;;;;;5012028;28;20110;-50
2021/12/22 01:21:14;;;;;;;18.77;9.77;;;-2.70;99.90;;;;;;5011981;28;20460;-53
2021/12/22 01:23:51;;;;;;;17.30;11.45;;;-2.70;99.90;;;;;;5012033;28;20022;-50
2021/12/22 01:26:17;;;;;;;18.98;10.18;;;-2.70;99.90;;;;;;5012050;28;20494;-50
2021/12/22 01:28:43;;;;;;;15.98;9.50;;;-2.70;99.90;;;;;;5012064;28;20049;-50
2021/12/22 01:31:14;;;;;;;22.17;10.27;;;-2.70;99.90;;;;;;5012138;28;20047;-52
2021/12/22 01:33:40;;;;;;;18.95;10.98;;;-2.70;99.90;;;;;;5011947;28;20393;-53
2021/12/22 01:36:06;;;;;;;19.42;10.15;;;-2.70;99.90;;;;;;5012020;28;20026;-49
2021/12/22 01:38:31;;;;;;;20.13;10.18;;;-2.70;99.90;;;;;;4977982;28;20112;-50
2021/12/22 01:40:57;;;;;;;20.30;10.23;;;-2.70;99.90;;;;;;5011846;28;20122;-48
2021/12/22 01:43:23;;;;;;;16.13;10.40;;;-2.70;99.90;;;;;;5012234;28;20049;-52
2021/12/22 01:46:09;;;;;;;17.23;11.02;;;-2.70;99.90;;;;;;5011938;28;20030;-51
2021/12/22 01:51:30;;;;;;;16.05;11.02;;;-2.70;99.90;;;;;;5011642;28;20092;-49
2021/12/22 01:54:01;;;;;;;15.95;10.45;;;-2.70;99.90;;;;;;4993962;28;20034;-51
2021/12/22 01:56:29;;;;;;;16.90;11.25;;;-2.70;99.90;;;;;;5011877;28;20057;-51
2021/12/22 01:59:00;;;;;;;18.17;11.77;;;-2.70;99.90;;;;;;4994453;28;20521;-52
2021/12/22 02:01:28;;;;;;;18.33;10.63;;;-2.60;99.90;;;;;;5011568;28;20038;-47
2021/12/22 02:03:54;;;;;;;17.83;11.27;;;-2.60;99.90;;;;;;5011591;28;20025;-52
2021/12/22 02:06:20;;;;;;;19.60;11.18;;;-2.60;99.90;;;;;;4994202;28;20026;-50
2021/12/22 02:08:46;;;;;;;25.50;12.05;;;-2.60;99.90;;;;;;4994028;28;20397;-54
2021/12/22 02:14:34;;;;;;;18.85;11.45;;;-2.60;99.90;;;;;;5013376;28;20100;-52
2021/12/22 02:16:59;;;;;;;28.70;10.52;;;-2.60;99.90;;;;;;5015111;28;20033;-50
2021/12/22 02:19:25;;;;;;;20.55;11.63;;;-2.50;99.90;;;;;;5014309;28;20025;-47
2021/12/22 02:21:55;;;;;;;17.45;9.80;;;-2.60;99.90;;;;;;5014491;28;20080;-48
2021/12/22 02:24:21;;;;;;;24.98;12.32;;;-2.60;99.90;;;;;;5014684;28;20469;-50
2021/12/22 02:26:52;;;;;;;17.23;11.00;;;-2.70;99.90;;;;;;4997041;28;20029;-48
2021/12/22 02:29:21;;;;;;;21.65;11.05;;;-2.70;99.90;;;;;;5014490;28;20394;-47
2021/12/22 02:34:51;;;;;;;20.15;11.93;;;-2.70;99.90;;;;;;4943979;28;20067;-49
2021/12/22 02:37:24;;;;;;;20.08;11.35;;;-2.70;99.90;;;;;;4997023;28;20033;-51
2021/12/22 02:39:58;;;;;;;15.07;10.25;;;-2.80;99.90;;;;;;5014568;28;20041;-47
2021/12/22 02:42:27;;;;;;;22.55;10.98;;;-2.80;99.90;;;;;;5015721;28;20051;-49
2021/12/22 02:44:52;;;;;;;21.65;10.85;;;-2.80;99.90;;;;;;5014881;28;20033;-49
2021/12/22 02:47:20;;;;;;;16.42;10.52;;;-2.80;99.90;;;;;;4996749;28;20022;-47
2021/12/22 02:49:46;;;;;;;20.65;11.82;;;-2.90;99.90;;;;;;5014197;28;20025;-50
2021/12/22 02:52:12;;;;;;;15.90;10.35;;;-2.80;99.90;;;;;;5014447;28;20061;-51
2021/12/22 02:54:45;;;;;;;17.95;11.02;;;-2.80;99.90;;;;;;5014492;28;20076;-48
2021/12/22 02:57:23;;;;;;;21.52;11.50;;;-2.80;99.90;;;;;;5014348;28;20037;-48
2021/12/22 03:00:12;;;;;;;21.70;12.15;;;-2.70;99.90;;;;;;4996498;28;20026;-49
2021/12/22 03:02:46;;;;;;;20.92;11.50;;;-2.60;99.90;;;;;;5018425;23;20046;-47
2021/12/22 03:05:12;;;;;;;26.08;11.32;;;-2.60;99.90;;;;;;4994077;28;20541;-45
2021/12/22 03:07:38;;;;;;;22.10;11.18;;;-2.70;99.90;;;;;;4994381;28;20076;-49
2021/12/22 03:10:12;;;;;;;18.25;10.65;;;-2.60;99.90;;;;;;4993927;28;20080;-43
2021/12/22 03:12:39;;;;;;;19.60;9.85;;;-2.60;99.90;;;;;;4994109;28;20486;-44
2021/12/22 03:15:07;;;;;;;20.50;11.75;;;-2.60;99.90;;;;;;4994084;28;20065;-46
2021/12/22 03:17:33;;;;;;;18.75;9.90;;;-2.70;99.90;;;;;;4976259;28;20031;-44
2021/12/22 03:19:59;;;;;;;20.27;12.93;;;-2.70;99.90;;;;;;4993438;28;20034;-46
2021/12/22 03:22:25;;;;;;;18.00;10.93;;;-2.80;99.90;;;;;;4994362;28;20022;-44
2021/12/22 03:24:52;;;;;;;16.23;10.43;;;-2.80;99.90;;;;;;4993930;28;20475;-43
2021/12/22 03:27:19;;;;;;;15.20;10.68;;;-2.80;99.90;;;;;;4993634;28;20030;-44
2021/12/22 03:29:44;;;;;;;19.58;10.75;;;-2.80;99.90;;;;;;4975841;28;20026;-45
2021/12/22 03:32:11;;;;;;;18.85;11.18;;;-2.80;99.90;;;;;;4993499;28;20482;-48
2021/12/22 03:34:38;;;;;;;20.08;10.93;;;-2.80;99.90;;;;;;4993580;28;20026;-47
2021/12/22 03:37:05;;;;;;;20.50;10.85;;;-2.80;99.90;;;;;;4993416;28;20023;-44
2021/12/22 03:39:32;;;;;;;17.02;9.95;;;-2.80;99.90;;;;;;4993152;28;20026;-46
2021/12/22 03:41:58;;;;;;;18.38;11.02;;;-2.80;99.90;;;;;;4993278;28;20033;-46
2021/12/22 03:44:23;;;;;;;16.80;12.00;;;-2.80;99.90;;;;;;4993223;28;20026;-45
2021/12/22 03:46:50;;;;;;;25.50;11.55;;;-2.90;99.90;;;;;;4992900;28;20109;-46
2021/12/22 03:49:16;;;;;;;22.80;11.25;;;-2.90;99.90;;;;;;4992802;28;20026;-44
2021/12/22 03:51:42;;;;;;;22.15;11.85;;;-2.90;99.90;;;;;;4993265;28;20057;-45
2021/12/22 03:54:10;;;;;;;18.80;11.60;;;-2.90;99.90;;;;;;4993647;28;20026;-46
2021/12/22 03:56:36;;;;;;;20.35;11.98;;;-2.90;99.90;;;;;;4993112;28;20114;-45
2021/12/22 03:59:02;;;;;;;25.95;11.60;;;-2.90;99.90;;;;;;4992839;28;20026;-48
2021/12/22 04:01:27;;;;;;;19.67;10.77;;;-2.90;99.90;;;;;;4992591;28;20066;-44
2021/12/22 04:03:57;;;;;;;22.85;11.55;;;-2.90;99.90;;;;;;4992891;28;20061;-45
2021/12/22 04:06:23;;;;;;;20.13;11.32;;;-2.90;99.90;;;;;;4993120;28;20453;-46
2021/12/22 04:08:48;;;;;;;18.10;11.52;;;-2.90;99.90;;;;;;4992869;28;20034;-47
2021/12/22 04:11:14;;;;;;;24.38;12.52;;;-2.90;99.90;;;;;;4992564;28;20030;-45
2021/12/22 04:13:39;;;;;;;24.00;12.43;;;-2.90;99.90;;;;;;4992583;28;20026;-45
2021/12/22 04:16:05;;;;;;;24.00;12.18;;;-2.80;99.90;;;;;;4992702;28;20026;-47
2021/12/22 04:18:31;;;;;;;25.27;12.05;;;-2.90;99.90;;;;;;4993277;28;20042;-47
2021/12/22 04:20:56;;;;;;;22.65;11.95;;;-2.90;99.90;;;;;;4992333;28;20112;-47
2021/12/22 04:23:22;;;;;;;19.33;11.40;;;-2.90;99.90;;;;;;4992503;28;20022;-44
2021/12/22 04:25:47;;;;;;;20.92;11.38;;;-2.90;99.90;;;;;;4992600;28;20490;-45
2021/12/22 04:28:14;;;;;;;19.20;10.95;;;-3.00;99.90;;;;;;4992396;28;20458;-44
2021/12/22 04:30:42;;;;;;;21.52;11.43;;;-2.90;99.90;;;;;;4992146;28;20054;-45
2021/12/22 04:33:08;;;;;;;19.55;12.05;;;-2.90;99.90;;;;;;4992055;28;20022;-46
2021/12/22 04:35:34;;;;;;;27.90;14.73;;;-2.90;99.90;;;;;;4992470;28;20133;-46
2021/12/22 04:38:00;;;;;;;20.02;11.95;;;-3.00;99.90;;;;;;4992325;28;20022;-46
2021/12/22 04:40:26;;;;;;;21.50;12.05;;;-2.90;99.90;;;;;;4992080;28;20461;-49
2021/12/22 04:42:51;;;;;;;27.42;11.95;;;-3.00;99.90;;;;;;4992177;28;20022;-47
2021/12/22 04:45:17;;;;;;;23.50;13.02;;;-2.90;99.90;;;;;;4974824;28;20565;-46
2021/12/22 04:47:44;;;;;;;22.83;12.88;;;-2.90;99.90;;;;;;4992017;28;20406;-47
2021/12/22 04:50:15;;;;;;;20.05;12.75;;;-2.90;99.90;;;;;;4991987;28;20030;-45
2021/12/22 04:52:54;;;;;;;18.30;11.10;;;-2.90;99.90;;;;;;4992071;28;20026;-46
2021/12/22 04:55:20;;;;;;;31.90;13.70;;;-3.00;99.90;;;;;;4992359;28;20022;-47
2021/12/22 04:57:45;;;;;;;23.08;12.13;;;-3.00;99.90;;;;;;4974658;28;20026;-45
2021/12/22 05:00:14;;;;;;;26.08;12.57;;;-3.10;99.90;;;;;;4991822;28;20022;-45
2021/12/22 05:02:40;;;;;;;28.52;12.90;;;-3.00;99.90;;;;;;4991911;28;20141;-45
2021/12/22 05:05:06;;;;;;;21.88;12.88;;;-3.00;99.90;;;;;;4992110;28;20423;-43
2021/12/22 05:07:31;;;;;;;22.40;12.43;;;-3.00;99.90;;;;;;4974917;28;20410;-50
2021/12/22 05:09:57;;;;;;;24.08;13.88;;;-3.00;99.90;;;;;;4991908;28;20037;-49
2021/12/22 05:12:22;;;;;;;23.88;12.57;;;-3.10;99.90;;;;;;4974915;28;20125;-44
2021/12/22 05:14:50;;;;;;;21.05;13.10;;;-3.10;99.90;;;;;;4992682;28;20497;-46
2021/12/22 05:17:20;;;;;;;21.55;11.80;;;-3.20;99.90;;;;;;4992688;28;20033;-47
2021/12/22 05:19:46;;;;;;;22.80;14.18;;;-3.30;99.90;;;;;;4974855;28;20041;-47
2021/12/22 05:22:12;;;;;;;19.88;11.75;;;-3.30;99.90;;;;;;4991982;28;20023;-46
2021/12/22 05:24:37;;;;;;;19.02;11.77;;;-3.30;99.90;;;;;;4974476;28;20033;-45
2021/12/22 05:27:03;;;;;;;21.48;13.52;;;-3.30;99.90;;;;;;4991896;28;20109;-45
2021/12/22 05:29:29;;;;;;;25.13;12.50;;;-3.20;99.90;;;;;;4991661;28;20107;-47
2021/12/22 05:31:56;;;;;;;22.20;12.40;;;-3.20;99.90;;;;;;4991786;28;20294;-46
2021/12/22 05:34:21;;;;;;;23.63;12.02;;;-3.30;99.90;;;;;;4991664;28;20049;-44
2021/12/22 05:36:47;;;;;;;19.50;13.48;;;-3.30;99.90;;;;;;4991959;28;20065;-44
2021/12/22 05:39:13;;;;;;;25.50;13.35;;;-3.40;99.90;;;;;;4991309;28;20073;-47
2021/12/22 05:41:38;;;;;;;20.45;13.52;;;-3.40;99.90;;;;;;4991591;28;20031;-44
2021/12/22 05:44:04;;;;;;;24.58;13.77;;;-3.30;99.90;;;;;;4991929;28;20478;-46
2021/12/22 05:46:30;;;;;;;24.20;13.27;;;-3.40;99.90;;;;;;4977617;28;20434;-45
2021/12/22 05:48:56;;;;;;;23.77;13.75;;;-3.30;99.90;;;;;;4977992;28;20386;-45
2021/12/22 05:51:22;;;;;;;22.98;13.20;;;-3.40;99.90;;;;;;4995147;28;20023;-45
2021/12/22 05:53:48;;;;;;;30.50;14.77;;;-3.40;99.90;;;;;;4995534;28;20033;-46
2021/12/22 05:56:14;;;;;;;27.77;14.55;;;-3.40;99.90;;;;;;4995717;28;20395;-43
2021/12/22 05:58:39;;;;;;;22.98;13.15;;;-3.40;99.90;;;;;;4996358;28;20397;-46
2021/12/22 06:01:05;;;;;;;21.27;13.55;;;-3.40;99.90;;;;;;4995357;28;20034;-44
2021/12/22 06:03:30;;;;;;;33.53;17.05;;;-3.40;99.90;;;;;;4995888;28;20022;-47
2021/12/22 06:05:56;;;;;;;21.63;12.32;;;-3.50;99.90;;;;;;4995233;28;20054;-48
2021/12/22 06:08:21;;;;;;;25.85;13.88;;;-3.50;99.90;;;;;;4995143;28;20054;-46
2021/12/22 06:10:47;;;;;;;23.60;14.27;;;-3.50;99.90;;;;;;4994738;28;20034;-47
2021/12/22 06:13:12;;;;;;;26.77;14.35;;;-3.40;99.90;;;;;;4995326;28;20398;-52
2021/12/22 06:15:40;;;;;;;26.13;13.77;;;-3.40;99.90;;;;;;4994952;28;20030;-46
2021/12/22 06:18:06;;;;;;;27.25;13.65;;;-3.40;99.90;;;;;;4994880;28;20018;-47
2021/12/22 06:20:33;;;;;;;31.80;14.77;;;-3.30;99.90;;;;;;4994793;28;20022;-44
2021/12/22 06:22:59;;;;;;;25.40;13.40;;;-3.30;99.90;;;;;;4995203;28;20085;-49
2021/12/22 06:25:25;;;;;;;19.13;11.88;;;-3.30;99.90;;;;;;4994824;28;20034;-48
2021/12/22 06:27:51;;;;;;;25.73;13.13;;;-3.30;99.90;;;;;;4994696;28;20081;-45
2021/12/22 06:30:20;;;;;;;22.05;14.32;;;-3.20;99.90;;;;;;4994629;28;20501;-47
2021/12/22 06:32:49;;;;;;;24.67;14.27;;;-3.10;99.90;;;;;;4994592;28;20079;-47
2021/12/22 06:35:15;;;;;;;22.17;13.20;;;-3.00;99.90;;;;;;4977145;28;20022;-44
2021/12/22 06:37:43;;;;;;;24.67;12.88;;;-3.10;99.90;;;;;;4994470;28;20049;-45
2021/12/22 06:40:09;;;;;;;20.00;13.27;;;-2.90;99.90;;;;;;4976917;28;20161;-46
2021/12/22 06:42:36;;;;;;;20.33;11.68;;;-3.00;99.90;;;;;;4994288;28;20069;-48
2021/12/22 06:45:02;;;;;;;18.45;12.55;;;-3.10;99.90;;;;;;4994302;28;20077;-48
2021/12/22 06:47:28;;;;;;;22.73;13.63;;;-3.00;99.90;;;;;;4994170;28;20034;-49
2021/12/22 06:49:53;;;;;;;26.95;13.57;;;-3.00;99.90;;;;;;4976535;28;20509;-46
2021/12/22 06:52:19;;;;;;;21.30;12.88;;;-3.00;99.90;;;;;;4994206;28;20532;-46
2021/12/22 06:54:46;;;;;;;25.38;13.52;;;-3.10;99.90;;;;;;4993811;28;20026;-53
2021/12/22 06:57:14;;;;;;;22.67;12.57;;;-3.10;99.90;;;;;;4994314;28;20034;-50
2021/12/22 06:59:40;;;;;;;32.17;13.18;;;-3.10;99.90;;;;;;4993863;28;20041;-52
2021/12/22 07:02:06;;;;;;;28.10;14.15;;;-2.90;99.90;;;;;;4994095;28;20494;-50
2021/12/22 07:04:32;;;;;;;21.17;13.93;;;-2.90;99.90;;;;;;4994047;28;20035;-49
2021/12/22 07:06:57;;;;;;;28.77;15.90;;;-3.10;99.90;;;;;;4994299;28;20031;-47
2021/12/22 07:09:26;;;;;;;25.35;15.40;;;-3.10;99.90;;;;;;4993663;28;20022;-49
2021/12/22 07:11:51;;;;;;;27.98;15.27;;;-3.10;99.90;;;;;;4993918;28;20402;-47
2021/12/22 07:14:19;;;;;;;27.40;13.93;;;-3.30;99.90;;;;;;4993781;28;20080;-45
2021/12/22 07:16:45;;;;;;;28.38;15.13;;;-3.20;99.90;;;;;;4993839;28;20030;-45
2021/12/22 07:19:11;;;;;;;24.40;15.48;;;-3.30;99.90;;;;;;4993691;28;20014;-47
2021/12/22 07:21:38;;;;;;;21.67;15.52;;;-3.30;99.90;;;;;;4993791;28;20033;-45
2021/12/22 07:24:04;;;;;;;29.48;14.32;;;-3.30;99.90;;;;;;4993855;28;20026;-45
2021/12/22 07:26:29;;;;;;;25.10;15.00;;;-3.30;99.90;;;;;;4994098;28;20054;-46
2021/12/22 07:28:55;;;;;;;31.35;16.92;;;-3.30;99.90;;;;;;4993720;28;20429;-46
2021/12/22 07:31:21;;;;;;;29.05;14.93;;;-3.40;99.90;;;;;;4993426;28;20418;-47
2021/12/22 07:33:56;;;;;;;25.98;15.30;;;-3.50;99.90;;;;;;4993756;28;20077;-50
2021/12/22 07:36:21;;;;;;;23.08;14.75;;;-3.50;99.90;;;;;;4993694;28;20022;-46
2021/12/22 07:38:55;;;;;;;24.95;15.07;;;-3.50;99.90;;;;;;4993697;28;20121;-48
2021/12/22 07:41:21;;;;;;;29.45;15.27;;;-3.40;99.90;;;;;;4975844;28;20022;-51
2021/12/22 07:43:46;;;;;;;25.73;14.88;;;-3.50;99.90;;;;;;4993639;28;20088;-45
2021/12/22 07:46:12;;;;;;;28.88;15.25;;;-3.50;99.90;;;;;;4993579;28;20033;-45
2021/12/22 07:48:37;;;;;;;27.73;14.82;;;-3.50;99.90;;;;;;4993225;28;20112;-46
2021/12/22 07:51:03;;;;;;;27.33;14.40;;;-3.60;99.90;;;;;;4992752;28;20111;-47
2021/12/22 07:53:29;;;;;;;24.33;12.65;;;-3.60;99.90;;;;;;4993169;28;20080;-44
2021/12/22 07:55:54;;;;;;;25.63;14.13;;;-3.60;99.90;;;;;;4994235;28;20038;-45
2021/12/22 07:58:25;;;;;;;25.17;15.02;;;-3.60;99.90;;;;;;4993065;28;20030;-45
2021/12/22 08:00:52;;;;;;;28.80;14.85;;;-3.70;99.90;;;;;;4993072;28;20023;-46
2021/12/22 08:03:17;;;;;;;33.88;14.75;;;-3.70;99.90;;;;;;4993262;28;20030;-48
2021/12/22 08:05:43;;;;;;;25.02;14.05;;;-3.70;99.90;;;;;;4993425;28;20511;-48
2021/12/22 08:08:09;;;;;;;24.30;14.20;;;-3.70;99.90;;;;;;4992454;28;20030;-48
2021/12/22 08:10:35;;;;;;;23.73;14.50;;;-3.70;99.90;;;;;;4992827;28;20030;-43
2021/12/22 08:13:00;;;;;;;21.02;13.93;;;-3.70;99.90;;;;;;4993245;28;20058;-50
2021/12/22 08:15:26;;;;;;;29.48;14.93;;;-3.80;99.90;;;;;;4992934;28;20023;-44
2021/12/22 08:17:52;;;;;;;23.48;13.80;;;-3.70;99.90;;;;;;4992840;28;20030;-46
2021/12/22 08:20:19;;;;;;;22.35;15.05;;;-3.80;99.90;;;;;;4992823;28;20072;-47
2021/12/22 08:22:44;;;;;;;27.73;14.73;;;-3.80;99.90;;;;;;4992451;28;20042;-45
2021/12/22 08:25:10;;;;;;;23.40;13.60;;;-3.70;99.90;;;;;;4992617;28;20490;-45
2021/12/22 08:27:36;;;;;;;37.67;14.63;;;-3.70;99.90;;;;;;4992725;28;20080;-44
2021/12/22 08:30:02;;;;;;;32.60;14.82;;;-3.60;99.90;;;;;;4992825;28;20026;-48
2021/12/22 08:32:28;;;;;;;28.20;16.30;;;-3.60;99.90;;;;;;4992403;28;20030;-46
2021/12/22 08:34:55;;;;;;;26.40;15.30;;;-3.60;99.90;;;;;;4992729;28;20037;-45
2021/12/22 08:40:08;;;;;;;23.95;14.10;;;-3.50;99.90;;;;;;4993195;28;20409;-45
2021/12/22 08:42:34;;;;;;;33.72;16.30;;;-3.40;99.90;;;;;;4993336;28;20019;-44
2021/12/22 08:45:00;;;;;;;24.92;15.15;;;-3.30;99.90;;;;;;4992758;28;20038;-47
2021/12/22 08:47:25;;;;;;;30.42;15.73;;;-3.30;99.90;;;;;;4992735;28;20534;-45
2021/12/22 08:49:51;;;;;;;26.55;15.60;;;-3.10;99.90;;;;;;4992514;28;20030;-46
2021/12/22 08:52:18;;;;;;;22.92;14.10;;;;;;;;;;4975163;28;20050;-46
2021/12/22 08:54:44;;;;;;;21.42;14.02;;;-1.80;99.90;;;;;;4992505;28;20105;-47
2021/12/22 08:57:09;;;;;;;23.77;14.10;;;-0.90;99.90;;;;;;4992449;28;20121;-44
2021/12/22 08:59:35;;;;;;;20.50;13.13;;;-0.30;99.90;;;;;;4992173;28;20116;-47
2021/12/22 09:02:01;;;;;;;21.45;12.82;;;-0.30;99.90;;;;;;4993570;23;20035;-45
2021/12/22 09:04:27;;;;;;;18.52;12.70;;;0.40;99.90;;;;;;4975142;28;20019;-50
2021/12/22 09:06:53;;;;;;;21.05;11.90;;;0.50;99.90;;;;;;4973658;28;20082;-50
2021/12/22 09:09:20;;;;;;;23.25;12.00;;;1.00;99.90;;;;;;4973515;28;20094;-43
2021/12/22 09:11:46;;;;;;;25.17;13.70;;;1.80;99.90;;;;;;4971931;28;20086;-44
2021/12/22 09:14:12;;;;;;;21.23;12.80;;;2.40;99.90;;;;;;4973887;28;20034;-44
2021/12/22 09:16:40;;;;;;;17.33;11.43;;;2.60;99.90;;;;;;4974181;28;20027;-44
2021/12/22 09:19:07;;;;;;;21.17;12.90;;;2.80;99.90;;;;;;4976365;28;20101;-41
2021/12/22 09:21:35;;;;;;;19.88;13.50;;;2.90;99.90;;;;;;4978215;28;20065;-45
2021/12/22 09:24:01;;;;;;;16.90;12.15;;;2.90;99.90;;;;;;4978264;28;20035;-43
2021/12/22 09:26:26;;;;;;;16.48;11.40;;;3.30;99.90;;;;;;4977592;28;20026;-43
2021/12/22 09:28:54;;;;;;;18.75;11.75;;;3.50;99.20;;;;;;4977994;28;20027;-47
2021/12/22 09:31:21;;;;;;;17.58;12.00;;;3.40;98.70;;;;;;4978175;28;20027;-48
2021/12/22 09:33:47;;;;;;;16.70;11.52;;;3.30;99.50;;;;;;4978903;28;20030;-46
2021/12/22 09:36:15;;;;;;;19.05;11.45;;;3.50;99.40;;;;;;4978786;28;20155;-45
2021/12/22 09:38:40;;;;;;;16.80;11.10;;;3.70;98.70;;;;;;4978414;28;20031;-45
2021/12/22 09:41:08;;;;;;;20.88;12.82;;;3.90;98.90;;;;;;4978130;28;20089;-46
2021/12/22 09:43:34;;;;;;;20.13;12.63;;;3.80;98.60;;;;;;4976664;28;20023;-44
2021/12/22 09:46:05;;;;;;;16.27;11.85;;;3.70;98.70;;;;;;4976342;28;20514;-43
2021/12/22 09:48:48;;;;;;;16.98;11.35;;;3.70;99.50;;;;;;4974688;28;20023;-42
2021/12/22 09:53:48;;;;;;;20.05;12.07;;;3.00;99.90;;;;;;4975984;28;20019;-44
2021/12/22 09:56:16;;;;;;;18.90;11.35;;;2.80;99.90;;;;;;4974763;28;20019;-46
2021/12/22 09:58:44;;;;;;;23.30;12.52;;;2.60;99.90;;;;;;4976003;28;20030;-45
2021/12/22 10:01:11;;;;;;;19.85;12.40;;;2.50;99.90;;;;;;4975850;28;20037;-43
2021/12/22 10:03:38;;;;;;;20.10;12.88;;;2.60;99.90;;;;;;4975757;28;20042;-46
2021/12/22 10:06:03;;;;;;;19.08;12.75;;;2.40;99.90;;;;;;4975880;28;20023;-42
2021/12/22 10:08:31;;;;;;;23.42;14.15;;;2.30;99.90;;;;;;4975811;28;20030;-45
2021/12/22 10:11:12;;;;;;;23.50;13.95;;;2.20;99.90;;;;;;4975897;28;20035;-46
2021/12/22 10:13:44;;;;;;;21.40;13.55;;;1.90;99.90;;;;;;4975687;28;20027;-43
2021/12/22 10:16:19;;;;;;;23.65;13.40;;;1.60;99.90;;;;;;4975951;28;20041;-45
2021/12/22 10:18:45;;;;;;;18.08;12.73;;;1.60;99.90;;;;;;4975814;28;20086;-44
2021/12/22 10:21:18;;;;;;;21.58;13.82;;;1.50;99.90;;;;;;4975671;28;20027;-46
2021/12/22 10:23:50;;;;;;;21.83;13.13;;;1.30;99.90;;;;;;4975821;28;20019;-46
2021/12/22 10:26:18;;;;;;;22.52;15.00;;;1.10;99.90;;;;;;4975601;28;20031;-49
2021/12/22 10:28:59;;;;;;;20.10;13.63;;;1.10;99.90;;;;;;4976216;28;20033;-46
2021/12/22 10:31:48;;;;;;;21.55;13.35;;;1.10;99.90;;;;;;4974479;28;20031;-45
2021/12/22 10:34:16;;;;;;;21.48;13.63;;;1.20;99.90;;;;;;4975702;28;20471;-45
2021/12/22 10:36:51;;;;;;;21.52;14.98;;;1.30;99.90;;;;;;4975398;28;20494;-45
2021/12/22 10:39:28;;;;;;;23.42;13.55;;;1.40;99.90;;;;;;4975381;28;20029;-45
2021/12/22 10:42:04;;;;;;;19.20;13.45;;;1.50;99.90;;;;;;4975599;28;20023;-45
2021/12/22 10:44:39;;;;;;;21.17;13.07;;;1.50;99.90;;;;;;4975346;28;20026;-46
2021/12/22 10:47:19;;;;;;;26.67;14.40;;;1.50;99.90;;;;;;4975425;28;20023;-44
2021/12/22 10:50:01;;;;;;;17.90;12.50;;;1.70;99.90;;;;;;4975361;28;20019;-44
2021/12/22 10:52:27;;;;;;;18.42;13.35;;;1.90;99.90;;;;;;4975334;28;20486;-46
2021/12/22 10:55:13;;;;;;;19.50;13.45;;;2.20;99.90;;;;;;4975189;28;20039;-43
2021/12/22 10:57:41;;;;;;;20.10;12.93;;;2.40;99.90;;;;;;4975465;28;20034;-43
2021/12/22 11:00:22;;;;;;;16.42;12.20;;;2.40;99.90;;;;;;4975030;28;20106;-46
2021/12/22 11:03:05;;;;;;;20.70;13.18;;;2.30;99.90;;;;;;4974833;28;20027;-46
2021/12/22 11:05:45;;;;;;;22.98;13.55;;;2.20;99.90;;;;;;4975716;28;20418;-46
2021/12/22 11:08:23;;;;;;;22.75;13.80;;;2.30;99.90;;;;;;4974402;28;20033;-47
2021/12/22 11:10:49;;;;;;;21.08;12.95;;;2.30;99.90;;;;;;4975498;28;20507;-46
2021/12/22 11:13:24;;;;;;;22.30;14.18;;;2.10;99.90;;;;;;4976559;28;20023;-47
2021/12/22 11:15:50;;;;;;;23.38;13.88;;;2.00;99.90;;;;;;4973675;28;20022;-46
2021/12/22 11:18:30;;;;;;;21.42;13.70;;;1.90;99.90;;;;;;4975694;28;20034;-45
2021/12/22 11:21:15;;;;;;;25.15;13.82;;;1.90;99.90;;;;;;4974566;28;20027;-46
2021/12/22 11:23:41;;;;;;;24.65;13.77;;;1.80;99.90;;;;;;4975128;28;20050;-44
2021/12/22 11:26:07;;;;;;;25.10;15.68;;;1.80;99.90;;;;;;4974521;28;20023;-44
2021/12/22 11:28:34;;;;;;;21.17;14.15;;;1.70;99.90;;;;;;4974635;28;20030;-49
2021/12/22 11:31:02;;;;;;;23.48;14.57;;;1.70;99.90;;;;;;4974348;28;20023;-45
2021/12/22 11:33:27;;;;;;;21.55;14.40;;;1.70;99.90;;;;;;4974322;28;20102;-44
2021/12/22 11:35:56;;;;;;;24.00;15.07;;;1.70;99.90;;;;;;4974427;28;20578;-44
2021/12/22 11:38:22;;;;;;;21.90;14.23;;;1.50;99.90;;;;;;4974360;28;20090;-46
2021/12/22 11:40:55;;;;;;;22.73;13.75;;;1.50;99.90;;;;;;4974120;28;20089;-44
2021/12/22 11:43:21;;;;;;;29.17;15.85;;;1.50;99.90;;;;;;4974404;28;20102;-44
2021/12/22 11:45:48;;;;;;;21.20;14.65;;;1.60;99.90;;;;;;4974414;28;20516;-45
2021/12/22 11:48:15;;;;;;;24.33;14.65;;;1.60;99.90;;;;;;4972753;28;20027;-44
2021/12/22 11:50:47;;;;;;;27.48;16.17;;;1.60;99.90;;;;;;4974054;28;20023;-43
2021/12/22 11:53:12;;;;;;;23.98;15.30;;;1.50;99.90;;;;;;4973898;28;20081;-43
2021/12/22 11:55:49;;;;;;;21.83;14.77;;;1.50;99.90;;;;;;4974429;28;20039;-44
2021/12/22 11:58:20;;;;;;;26.20;15.18;;;1.40;99.90;;;;;;4974112;28;20150;-44
2021/12/22 12:01:08;;;;;;;24.65;15.65;;;1.40;99.90;;;;;;4972707;28;20023;-44
2021/12/22 12:03:44;;;;;;;21.13;14.55;;;1.40;99.90;;;;;;4972361;28;20122;-51
2021/12/22 12:06:17;;;;;;;25.63;15.32;;;1.40;99.90;;;;;;4973526;28;20509;-50
2021/12/22 12:08:51;;;;;;;26.08;14.27;;;1.30;99.90;;;;;;4973586;28;20035;-45
2021/12/22 12:11:34;;;;;;;26.83;16.55;;;1.30;99.90;;;;;;4971825;28;20027;-46
2021/12/22 12:14:06;;;;;;;24.70;15.23;;;1.20;99.90;;;;;;4973780;28;20034;-47
2021/12/22 12:22:30;;;;;;;25.30;14.75;;;1.40;99.90;;;;;;4971289;28;20110;-44
2021/12/22 12:25:13;;;;;;;21.00;14.73;;;1.50;99.90;;;;;;4970578;28;20090;-44
2021/12/22 12:27:50;;;;;;;26.42;15.52;;;1.40;99.90;;;;;;4972170;28;20406;-44
2021/12/22 12:30:34;;;;;;;24.75;15.50;;;1.40;99.90;;;;;;4964997;28;20030;-46
2021/12/22 12:33:02;;;;;;;24.30;14.65;;;1.50;99.90;;;;;;4986710;28;20030;-47
2021/12/22 12:35:31;;;;;;;24.13;14.32;;;1.40;99.90;;;;;;4981808;28;20038;-45
2021/12/22 12:38:01;;;;;;;26.60;15.50;;;1.50;99.90;;;;;;4973098;28;20486;-46
2021/12/22 12:43:53;;;;;;;24.00;15.80;;;1.50;99.90;;;;;;4960012;28;20031;-49
2021/12/22 12:46:19;;;;;;;;;;;1.50;99.90;;;;;;4954420;29;20023;-48
2021/12/22 12:48:49;;;;;;;26.55;15.30;;;1.60;99.90;;;;;;4955088;28;19917;-51
2021/12/22 12:51:20;;;;;;;21.23;14.35;;;1.70;99.90;;;;;;4952039;28;20031;-44
2021/12/22 12:53:48;;;;;;;25.08;16.65;;;1.60;99.90;;;;;;4953440;28;20450;-49
2021/12/22 12:56:15;;;;;;;24.65;15.57;;;1.60;99.90;;;;;;4952416;28;20034;-46
2021/12/22 12:59:02;;;;;;;28.92;15.38;;;1.60;99.90;;;;;;4954490;28;20028;-43